createdAt,value
2018-04-30T00:00:18.900Z,17.60
2018-04-30T00:02:48.646Z,17.60
2018-04-30T00:05:17.736Z,17.60
2018-04-30T00:07:47.682Z,17.50
2018-04-30T00:10:17.553Z,17.40
2018-04-30T00:12:46.876Z,17.40
2018-04-30T00:15:15.975Z,17.40
2018-04-30T00:17:45.055Z,17.40
2018-04-30T00:20:14.097Z,17.30
2018-04-30T00:22:43.164Z,17.30
2018-04-30T00:25:13.006Z,17.20
2018-04-30T00:27:42.109Z,17.20
2018-04-30T00:30:11.175Z,17.10
2018-04-30T00:32:40.221Z,17.10
2018-04-30T00:35:09.308Z,17.10
2018-04-30T00:37:38.348Z,17.00
2018-04-30T00:40:07.429Z,17.10
2018-04-30T00:42:36.516Z,17.00
2018-04-30T00:45:06.573Z,17.00
2018-04-30T00:47:36.372Z,16.90
2018-04-30T00:50:06.220Z,16.90
2018-04-30T00:52:35.269Z,16.90
2018-04-30T00:55:04.357Z,16.90
2018-04-30T00:57:33.420Z,16.80
2018-04-30T01:00:02.501Z,16.80
2018-04-30T01:02:31.581Z,16.70
2018-04-30T01:05:01.390Z,16.70
2018-04-30T01:07:31.218Z,16.70
2018-04-30T01:10:00.256Z,16.70
2018-04-30T01:12:29.342Z,16.70
2018-04-30T01:14:58.391Z,16.70
2018-04-30T01:17:27.473Z,16.70
2018-04-30T01:19:57.282Z,16.70
2018-04-30T01:22:27.130Z,16.70
2018-04-30T01:24:56.177Z,16.70
2018-04-30T01:27:25.223Z,16.80
2018-04-30T01:29:54.304Z,16.80
2018-04-30T01:32:23.385Z,16.70
2018-04-30T01:34:53.229Z,16.60
2018-04-30T01:37:22.276Z,16.60
2018-04-30T01:39:52.121Z,16.60
2018-04-30T01:42:21.193Z,16.60
2018-04-30T01:44:51.198Z,16.50
2018-04-30T01:47:20.249Z,16.50
2018-04-30T01:49:49.345Z,16.40
2018-04-30T01:52:18.445Z,16.40
2018-04-30T01:54:48.428Z,16.40
2018-04-30T01:57:17.498Z,16.30
2018-04-30T01:59:47.348Z,16.30
2018-04-30T02:02:16.407Z,16.30
2018-04-30T02:04:46.258Z,16.30
2018-04-30T02:07:15.321Z,16.20
2018-04-30T02:09:45.144Z,16.10
2018-04-30T02:12:16.330Z,16.10
2018-04-30T02:14:46.215Z,16.00
2018-04-30T02:17:15.263Z,16.00
2018-04-30T02:19:44.350Z,16.00
2018-04-30T02:22:13.416Z,15.90
2018-04-30T02:24:42.469Z,15.90
2018-04-30T02:27:12.313Z,15.80
2018-04-30T02:29:41.385Z,15.80
2018-04-30T02:32:10.867Z,15.80
2018-04-30T02:34:40.706Z,15.70
2018-04-30T02:37:10.064Z,15.70
2018-04-30T02:39:39.707Z,15.60
2018-04-30T02:42:09.529Z,15.50
2018-04-30T02:44:38.614Z,15.50
2018-04-30T02:47:07.691Z,15.50
2018-04-30T02:49:36.763Z,15.50
2018-04-30T02:52:05.893Z,15.40
2018-04-30T02:54:34.895Z,15.40
2018-04-30T02:57:03.994Z,15.40
2018-04-30T02:59:33.795Z,15.30
2018-04-30T03:02:03.636Z,15.30
2018-04-30T03:04:33.650Z,15.30
2018-04-30T03:07:02.723Z,15.40
2018-04-30T03:09:32.734Z,15.30
2018-04-30T03:12:13.118Z,15.30
2018-04-30T03:14:42.181Z,15.20
2018-04-30T03:17:13.541Z,15.10
2018-04-30T03:19:42.627Z,15.00
2018-04-30T03:22:13.025Z,15.00
2018-04-30T03:24:42.121Z,14.90
2018-04-30T03:27:11.207Z,14.90
2018-04-30T03:29:40.257Z,14.90
2018-04-30T03:32:09.335Z,14.90
2018-04-30T03:34:39.180Z,14.80
2018-04-30T03:37:08.309Z,14.70
2018-04-30T03:39:37.425Z,14.70
2018-04-30T03:42:07.491Z,14.70
2018-04-30T03:44:36.549Z,14.60
2018-04-30T03:47:06.396Z,14.70
2018-04-30T03:49:35.498Z,14.60
2018-04-30T03:52:04.560Z,14.60
2018-04-30T03:54:33.607Z,14.60
2018-04-30T03:57:02.689Z,14.60
2018-04-30T03:59:31.766Z,14.60
2018-04-30T04:02:18.462Z,14.60
2018-04-30T04:18:20.713Z,14.70
2018-04-30T04:20:49.739Z,14.70
2018-04-30T04:23:18.785Z,14.70
2018-04-30T04:25:52.754Z,14.80
2018-04-30T04:28:21.808Z,14.80
2018-04-30T04:30:50.917Z,14.80
2018-04-30T04:33:19.984Z,14.90
2018-04-30T04:35:49.793Z,14.90
2018-04-30T04:38:20.241Z,15.00
2018-04-30T04:40:49.294Z,15.00
2018-04-30T04:43:18.371Z,15.00
2018-04-30T04:45:47.417Z,15.10
2018-04-30T04:48:16.564Z,15.20
2018-04-30T04:50:45.606Z,15.30
2018-04-30T04:53:14.659Z,15.40
2018-04-30T04:55:43.797Z,15.60
2018-04-30T04:58:12.953Z,15.70
2018-04-30T05:00:42.084Z,15.80
2018-04-30T05:03:11.212Z,16.00
2018-04-30T05:05:40.277Z,16.20
2018-04-30T05:08:09.333Z,16.20
2018-04-30T05:10:38.423Z,16.30
2018-04-30T05:13:08.512Z,16.40
2018-04-30T05:15:37.574Z,16.60
2018-04-30T05:18:06.670Z,16.60
2018-04-30T05:20:35.721Z,16.70
2018-04-30T05:23:04.819Z,16.70
2018-04-30T05:25:33.865Z,16.70
2018-04-30T05:28:02.941Z,16.80
2018-04-30T05:30:32.750Z,16.80
2018-04-30T05:33:02.598Z,16.90
2018-04-30T05:35:31.645Z,16.80
2018-04-30T05:38:00.731Z,16.90
2018-04-30T05:40:29.814Z,16.90
2018-04-30T05:42:58.870Z,17.00
2018-04-30T05:45:27.946Z,17.00
2018-04-30T05:47:57.323Z,17.10
2018-04-30T05:50:26.358Z,17.10
2018-04-30T05:52:55.453Z,17.20
2018-04-30T05:55:25.278Z,17.30
2018-04-30T05:57:54.358Z,17.20
2018-04-30T06:00:24.187Z,17.30
2018-04-30T06:02:53.341Z,17.30
2018-04-30T06:05:23.153Z,17.40
2018-04-30T06:07:53.005Z,17.50
2018-04-30T06:10:22.053Z,17.50
2018-04-30T06:12:51.906Z,17.70
2018-04-30T06:15:20.948Z,17.70
2018-04-30T06:17:50.158Z,17.70
2018-04-30T06:20:19.240Z,17.90
2018-04-30T06:22:48.330Z,18.00
2018-04-30T06:25:17.419Z,18.30
2018-04-30T06:27:46.502Z,18.60
2018-04-30T06:30:15.577Z,18.80
2018-04-30T06:32:45.325Z,19.10
2018-04-30T06:35:14.506Z,19.40
2018-04-30T06:37:43.701Z,19.60
2018-04-30T06:40:12.792Z,19.70
2018-04-30T06:42:41.858Z,19.70
2018-04-30T06:45:10.917Z,19.70
2018-04-30T06:47:40.074Z,19.70
2018-04-30T06:50:09.161Z,19.70
2018-04-30T06:52:38.237Z,19.60
2018-04-30T06:55:07.310Z,19.60
2018-04-30T06:57:37.143Z,19.40
2018-04-30T07:00:06.207Z,19.40
2018-04-30T07:02:35.323Z,19.40
2018-04-30T07:05:04.397Z,19.30
2018-04-30T07:07:33.454Z,19.30
2018-04-30T07:10:02.538Z,19.20
2018-04-30T07:12:31.601Z,19.00
2018-04-30T07:15:01.449Z,18.60
2018-04-30T07:17:30.494Z,18.60
2018-04-30T07:20:00.419Z,18.20
2018-04-30T07:22:29.506Z,18.10
2018-04-30T07:24:59.354Z,17.80
2018-04-30T07:27:28.507Z,17.70
2018-04-30T07:29:58.245Z,17.30
2018-04-30T07:32:27.334Z,17.30
2018-04-30T07:34:57.162Z,17.10
2018-04-30T07:37:26.262Z,17.10
2018-04-30T07:39:55.346Z,17.10
2018-04-30T07:42:24.396Z,17.00
2018-04-30T07:44:53.482Z,17.00
2018-04-30T07:47:22.525Z,16.90
2018-04-30T07:49:51.660Z,16.80
2018-04-30T07:52:20.698Z,16.70
2018-04-30T07:54:50.540Z,16.60
2018-04-30T07:57:19.708Z,16.60
2018-04-30T07:59:48.721Z,16.60
2018-04-30T08:02:17.809Z,16.60
2018-04-30T08:04:46.901Z,16.70
2018-04-30T08:07:16.744Z,16.80
2018-04-30T08:09:45.797Z,16.70
2018-04-30T08:12:15.641Z,16.90
2018-04-30T08:14:44.770Z,16.90
2018-04-30T08:17:14.543Z,17.10
2018-04-30T08:19:43.605Z,17.10
2018-04-30T08:22:12.675Z,17.20
2018-04-30T08:24:41.751Z,17.40
2018-04-30T08:27:10.801Z,17.70
2018-04-30T08:29:40.633Z,18.10
2018-04-30T08:32:09.701Z,18.10
2018-04-30T08:34:39.547Z,18.30
2018-04-30T08:37:08.618Z,18.30
2018-04-30T08:39:38.449Z,18.20
2018-04-30T08:42:07.518Z,18.20
2018-04-30T08:44:37.338Z,18.10
2018-04-30T08:47:07.175Z,18.00
2018-04-30T08:49:36.220Z,18.00
2018-04-30T08:52:05.358Z,17.90
2018-04-30T08:54:34.344Z,17.90
2018-04-30T08:57:03.441Z,17.80
2018-04-30T08:59:32.495Z,17.80
2018-04-30T09:02:01.581Z,17.80
2018-04-30T09:04:30.651Z,17.80
2018-04-30T09:06:59.691Z,17.90
2018-04-30T09:09:29.565Z,17.90
2018-04-30T09:11:58.568Z,17.90
2018-04-30T09:14:27.667Z,17.90
2018-04-30T09:16:56.710Z,18.00
2018-04-30T09:19:25.785Z,18.20
2018-04-30T09:21:55.601Z,18.70
2018-04-30T09:24:25.537Z,18.90
2018-04-30T09:26:54.523Z,18.90
2018-04-30T09:29:23.586Z,19.00
2018-04-30T09:31:52.657Z,19.00
2018-04-30T09:34:22.465Z,19.20
2018-04-30T09:36:51.559Z,19.20
2018-04-30T09:39:20.601Z,19.10
2018-04-30T09:41:50.444Z,19.20
2018-04-30T09:44:19.485Z,19.20
2018-04-30T09:46:48.573Z,19.30
2018-04-30T09:49:17.655Z,19.40
2018-04-30T09:51:46.704Z,19.50
2018-04-30T09:54:15.757Z,19.60
2018-04-30T09:56:44.847Z,19.60
2018-04-30T09:59:13.925Z,19.60
2018-04-30T10:01:43.000Z,19.70
2018-04-30T10:04:12.064Z,19.90
2018-04-30T10:06:41.886Z,20.70
2018-04-30T10:09:10.965Z,20.70
2018-04-30T10:11:40.771Z,21.70
2018-04-30T10:14:09.854Z,21.60
2018-04-30T10:16:38.912Z,22.00
2018-04-30T10:19:08.000Z,22.10
2018-04-30T10:21:37.080Z,22.50
2018-04-30T10:24:06.128Z,23.10
2018-04-30T10:26:35.213Z,23.60
2018-04-30T10:29:04.309Z,24.00
2018-04-30T10:31:33.443Z,24.20
2018-04-30T10:34:02.406Z,24.20
2018-04-30T10:36:31.469Z,24.40
2018-04-30T10:39:00.569Z,24.50
2018-04-30T10:41:29.629Z,24.60
2018-04-30T10:43:58.709Z,24.60
2018-04-30T10:46:28.527Z,24.90
2018-04-30T10:48:58.365Z,25.00
2018-04-30T10:51:27.428Z,25.00
2018-04-30T10:53:57.276Z,25.70
2018-04-30T10:56:26.333Z,25.60
2018-04-30T10:58:55.384Z,26.00
2018-04-30T11:01:24.462Z,26.10
2018-04-30T11:03:53.554Z,26.40
2018-04-30T11:06:22.622Z,26.50
2018-04-30T11:08:52.503Z,27.40
2018-04-30T11:11:21.884Z,27.40
2018-04-30T11:13:51.697Z,27.30
2018-04-30T11:16:20.782Z,27.30
2018-04-30T11:18:49.824Z,27.40
2018-04-30T11:21:19.664Z,28.10
2018-04-30T11:23:48.719Z,28.10
2018-04-30T11:26:17.810Z,28.30
2018-04-30T11:28:46.890Z,28.50
2018-04-30T11:31:15.985Z,28.50
2018-04-30T11:33:45.048Z,28.60
2018-04-30T11:36:14.089Z,28.20
2018-04-30T11:38:43.178Z,28.30
2018-04-30T11:41:12.253Z,28.50
2018-04-30T11:43:41.302Z,28.50
2018-04-30T11:46:11.160Z,28.90
2018-04-30T11:48:40.217Z,28.80
2018-04-30T11:51:10.097Z,28.50
2018-04-30T11:53:39.153Z,28.50
2018-04-30T11:56:08.229Z,29.00
2018-04-30T11:58:37.350Z,29.40
2018-04-30T12:01:06.374Z,29.30
2018-04-30T12:03:35.421Z,29.50
2018-04-30T12:06:04.500Z,30.00
2018-04-30T12:08:33.560Z,30.60
2018-04-30T12:11:02.671Z,31.10
2018-04-30T12:13:31.739Z,31.60
2018-04-30T12:16:00.814Z,32.00
2018-04-30T12:18:29.872Z,32.10
2018-04-30T12:20:59.730Z,32.60
2018-04-30T12:23:28.801Z,32.60
2018-04-30T12:25:58.081Z,32.90
2018-04-30T12:28:27.512Z,32.60
2018-04-30T12:30:56.589Z,32.50
2018-04-30T12:33:25.645Z,32.20
2018-04-30T12:35:54.719Z,31.30
2018-04-30T12:38:23.795Z,30.60
2018-04-30T12:40:52.845Z,29.80
2018-04-30T12:43:22.687Z,29.50
2018-04-30T12:45:51.736Z,29.40
2018-04-30T12:48:20.810Z,29.20
2018-04-30T12:50:49.929Z,28.70
2018-04-30T12:53:18.969Z,28.30
2018-04-30T12:55:48.022Z,28.00
2018-04-30T12:58:17.865Z,27.40
2018-04-30T13:00:46.912Z,27.40
2018-04-30T13:03:16.755Z,27.50
2018-04-30T13:05:46.909Z,27.40
2018-04-30T13:08:15.965Z,27.40
2018-04-30T13:10:45.811Z,27.30
2018-04-30T13:13:14.849Z,27.30
2018-04-30T13:15:43.960Z,27.30
2018-04-30T13:18:13.774Z,27.10
2018-04-30T13:20:43.636Z,26.90
2018-04-30T13:23:12.682Z,26.90
2018-04-30T13:25:42.508Z,27.60
2018-04-30T13:28:11.567Z,27.50
2018-04-30T13:30:40.639Z,27.90
2018-04-30T13:33:09.745Z,28.20
2018-04-30T13:35:38.833Z,28.70
2018-04-30T13:38:07.909Z,29.10
2018-04-30T13:40:37.051Z,29.40
2018-04-30T13:43:06.109Z,29.10
2018-04-30T13:45:35.155Z,28.50
2018-04-30T13:48:04.989Z,28.30
2018-04-30T13:50:34.061Z,28.30
2018-04-30T13:53:04.777Z,28.40
2018-04-30T13:55:33.841Z,28.30
2018-04-30T13:58:02.936Z,28.40
2018-04-30T14:00:31.978Z,28.50
2018-04-30T14:03:01.825Z,28.70
2018-04-30T14:05:30.875Z,28.60
2018-04-30T14:08:00.727Z,27.70
2018-04-30T14:10:29.786Z,27.70
2018-04-30T14:12:59.677Z,27.70
2018-04-30T14:15:28.773Z,27.70
2018-04-30T14:17:57.816Z,28.00
2018-04-30T14:20:26.903Z,27.90
2018-04-30T14:22:56.744Z,27.90
2018-04-30T14:25:25.817Z,27.90
2018-04-30T14:27:54.878Z,27.80
2018-04-30T14:30:23.986Z,27.70
2018-04-30T14:32:53.811Z,27.30
2018-04-30T14:35:23.666Z,27.60
2018-04-30T14:37:52.691Z,27.60
2018-04-30T14:40:21.767Z,28.10
2018-04-30T14:42:50.866Z,28.50
2018-04-30T14:45:19.900Z,28.80
2018-04-30T14:47:48.976Z,28.90
2018-04-30T14:50:18.015Z,29.30
2018-04-30T14:52:47.094Z,29.70
2018-04-30T14:55:16.181Z,29.90
2018-04-30T14:57:45.231Z,29.70
2018-04-30T15:00:14.325Z,29.30
2018-04-30T15:02:43.420Z,28.80
2018-04-30T15:05:12.535Z,28.40
2018-04-30T15:07:41.617Z,28.10
2018-04-30T15:10:10.677Z,27.90
2018-04-30T15:12:39.789Z,27.60
2018-04-30T15:15:08.875Z,27.30
2018-04-30T15:17:37.959Z,27.40
2018-04-30T15:20:07.002Z,27.40
2018-04-30T15:22:36.093Z,27.20
2018-04-30T15:25:05.148Z,27.00
2018-04-30T15:27:34.205Z,26.70
2018-04-30T15:30:04.056Z,27.40
2018-04-30T15:32:33.110Z,26.70
2018-04-30T15:35:02.941Z,27.50
2018-04-30T15:37:32.014Z,27.40
2018-04-30T15:40:01.830Z,28.40
2018-04-30T15:42:31.673Z,28.50
2018-04-30T15:45:00.745Z,28.40
2018-04-30T15:47:30.573Z,28.30
2018-04-30T15:49:59.629Z,28.30
2018-04-30T15:52:28.705Z,27.70
2018-04-30T15:54:57.798Z,27.20
2018-04-30T15:57:26.879Z,26.60
2018-04-30T15:59:55.960Z,26.20
2018-04-30T16:02:25.737Z,25.90
2018-04-30T16:04:55.584Z,25.50
2018-04-30T16:07:24.629Z,25.50
2018-04-30T16:09:54.464Z,25.50
2018-04-30T16:12:23.523Z,25.40
2018-04-30T16:14:52.739Z,25.30
2018-04-30T16:17:21.781Z,25.20
2018-04-30T16:19:50.908Z,25.10
2018-04-30T16:22:19.964Z,24.90
2018-04-30T16:24:49.065Z,24.70
2018-04-30T16:27:18.123Z,24.70
2018-04-30T16:29:47.968Z,24.60
2018-04-30T16:32:17.066Z,24.50
2018-04-30T16:34:46.163Z,24.50
2018-04-30T16:37:15.224Z,24.50
2018-04-30T16:39:44.340Z,24.70
2018-04-30T16:42:14.156Z,24.70
2018-04-30T16:44:43.250Z,24.70
2018-04-30T16:47:12.383Z,24.70
2018-04-30T16:49:41.407Z,24.50
2018-04-30T16:52:10.451Z,24.40
2018-04-30T16:54:39.541Z,24.20
2018-04-30T16:57:08.607Z,24.10
2018-04-30T16:59:37.688Z,24.10
2018-04-30T17:02:07.547Z,23.90
2018-04-30T17:04:36.625Z,23.90
2018-04-30T17:07:05.679Z,23.80
2018-04-30T17:09:34.763Z,23.70
2018-04-30T17:12:03.811Z,23.60
2018-04-30T17:14:32.849Z,23.50
2018-04-30T17:17:01.942Z,23.30
2018-04-30T17:19:30.989Z,23.20
2018-04-30T17:22:00.030Z,23.10
2018-04-30T17:24:29.151Z,23.10
2018-04-30T17:26:58.185Z,23.00
2018-04-30T17:29:27.265Z,23.00
2018-04-30T17:31:56.340Z,22.80
2018-04-30T17:34:26.289Z,22.70
2018-04-30T17:36:55.345Z,22.70
2018-04-30T17:39:25.192Z,22.60
2018-04-30T17:41:54.253Z,22.60
2018-04-30T17:44:24.070Z,22.50
2018-04-30T17:46:53.956Z,22.40
2018-04-30T17:49:22.966Z,22.40
2018-04-30T17:51:52.826Z,22.20
2018-04-30T17:54:21.873Z,22.10
2018-04-30T17:56:51.717Z,21.90
2018-04-30T17:59:20.775Z,21.90
2018-04-30T18:01:49.861Z,21.80
2018-04-30T18:04:18.942Z,21.70
2018-04-30T18:06:48.093Z,21.50
2018-04-30T18:09:17.078Z,21.40
2018-04-30T18:11:46.161Z,21.20
2018-04-30T18:14:15.988Z,21.00
2018-04-30T18:16:45.061Z,21.00
2018-04-30T18:19:14.917Z,20.80
2018-04-30T18:21:46.236Z,20.70
2018-04-30T18:24:15.287Z,20.70
2018-04-30T18:26:44.492Z,20.60
2018-04-30T18:29:13.591Z,20.50
2018-04-30T18:31:42.657Z,20.50
2018-04-30T18:34:11.720Z,20.40
2018-04-30T18:36:40.961Z,20.20
2018-04-30T18:39:10.027Z,20.10
2018-04-30T18:41:39.085Z,20.00
2018-04-30T18:44:08.930Z,19.90
2018-04-30T18:46:37.980Z,19.90
2018-04-30T18:49:07.044Z,19.70
2018-04-30T18:51:36.138Z,19.50
2018-04-30T18:54:05.201Z,19.40
2018-04-30T18:56:34.257Z,19.40
2018-04-30T18:59:03.390Z,19.30
2018-04-30T19:01:32.469Z,19.20
2018-04-30T19:04:02.297Z,19.00
2018-04-30T19:06:31.363Z,19.00
2018-04-30T19:09:00.525Z,19.00
2018-04-30T19:11:29.580Z,18.80
2018-04-30T19:13:58.623Z,18.80
2018-04-30T19:16:27.673Z,18.70
2018-04-30T19:18:56.824Z,18.70
2018-04-30T19:21:25.945Z,18.70
2018-04-30T19:23:55.024Z,18.60
2018-04-30T19:26:24.110Z,18.50
2018-04-30T19:28:53.164Z,18.60
2018-04-30T19:31:22.294Z,18.50
2018-04-30T19:33:51.481Z,18.50
2018-04-30T19:36:21.233Z,18.50
2018-04-30T19:38:51.462Z,18.50
2018-04-30T19:41:21.287Z,18.40
2018-04-30T19:43:50.348Z,18.40
2018-04-30T19:46:20.198Z,18.30
2018-04-30T19:48:49.239Z,18.30
2018-04-30T19:51:18.289Z,18.30
2018-04-30T19:53:47.372Z,18.20
2018-04-30T19:56:16.430Z,18.20
2018-04-30T19:58:45.488Z,18.10
2018-04-30T20:01:14.573Z,18.00
2018-04-30T20:03:43.617Z,18.00
2018-04-30T20:06:13.439Z,18.10
2018-04-30T20:08:44.010Z,18.10
2018-04-30T20:11:13.083Z,18.10
2018-04-30T20:13:42.216Z,18.00
2018-04-30T20:16:11.316Z,17.90
2018-04-30T20:18:40.393Z,17.80
2018-04-30T20:21:09.453Z,17.70
2018-04-30T20:23:39.317Z,17.60
2018-04-30T20:26:08.481Z,17.60
2018-04-30T20:28:37.445Z,17.50
2018-04-30T20:31:06.553Z,17.40
2018-04-30T20:33:36.364Z,17.30
2018-04-30T20:36:05.425Z,17.20
2018-04-30T20:38:34.498Z,17.20
2018-04-30T20:41:03.609Z,17.10
2018-04-30T20:43:32.696Z,17.10
2018-04-30T20:46:01.819Z,17.10
2018-04-30T20:48:30.885Z,17.00
2018-04-30T20:50:59.952Z,17.00
2018-04-30T20:53:29.039Z,17.00
2018-04-30T20:55:58.209Z,17.00
2018-04-30T20:58:28.236Z,16.90
2018-04-30T21:00:57.301Z,16.90
2018-04-30T21:03:26.360Z,16.90
2018-04-30T21:05:56.226Z,16.90
2018-04-30T21:08:26.069Z,16.80
2018-04-30T21:10:55.146Z,16.80
2018-04-30T21:13:24.997Z,16.70
2018-04-30T21:15:54.085Z,16.70
2018-04-30T21:18:23.179Z,16.60
2018-04-30T21:20:52.264Z,16.60
2018-04-30T21:23:21.348Z,16.60
2018-04-30T21:25:50.408Z,16.60
2018-04-30T21:28:19.484Z,16.60
2018-04-30T21:30:48.549Z,16.60
2018-04-30T21:33:17.616Z,16.60
2018-04-30T21:35:47.429Z,16.60
2018-04-30T21:38:17.288Z,16.60
2018-04-30T21:40:46.445Z,16.60
2018-04-30T21:43:15.522Z,16.50
2018-04-30T21:45:46.097Z,16.50
2018-04-30T21:48:15.186Z,16.50
2018-04-30T21:50:44.270Z,16.50
2018-04-30T21:53:13.348Z,16.60
2018-04-30T21:55:43.168Z,16.50
2018-04-30T21:58:12.259Z,16.50
2018-04-30T22:00:42.805Z,16.50
2018-04-30T22:03:11.887Z,16.40
2018-04-30T22:05:41.771Z,16.80
2018-04-30T22:08:10.862Z,16.40
2018-04-30T22:10:39.917Z,16.50
2018-04-30T22:13:09.080Z,16.40
2018-04-30T22:15:38.959Z,16.40
2018-04-30T22:18:08.010Z,16.40
2018-04-30T22:20:37.082Z,16.40
2018-04-30T22:23:06.915Z,16.30
2018-04-30T22:25:35.996Z,16.40
2018-04-30T22:28:05.058Z,16.30
2018-04-30T22:30:34.144Z,16.30
2018-04-30T22:33:03.202Z,16.30
2018-04-30T22:35:32.294Z,16.20
2018-04-30T22:38:01.364Z,16.20
2018-04-30T22:40:30.451Z,16.20
2018-04-30T22:43:00.297Z,16.20
2018-04-30T22:45:29.473Z,16.20
2018-04-30T22:47:58.521Z,16.20
2018-04-30T22:50:27.627Z,16.10
2018-04-30T22:52:56.692Z,16.10
2018-04-30T22:55:25.775Z,16.10
2018-04-30T22:57:55.017Z,16.00
2018-04-30T23:00:25.866Z,16.00
2018-04-30T23:02:55.704Z,15.90
2018-04-30T23:05:24.777Z,15.80
2018-04-30T23:07:54.625Z,15.80
2018-04-30T23:10:23.787Z,15.80
2018-04-30T23:12:53.598Z,15.70
2018-04-30T23:15:23.460Z,15.70
2018-04-30T23:17:52.508Z,15.70
2018-04-30T23:20:22.338Z,15.60
2018-04-30T23:22:51.790Z,15.60
2018-04-30T23:25:21.542Z,15.60
2018-04-30T23:27:51.395Z,15.50
2018-04-30T23:30:20.434Z,15.50
2018-04-30T23:32:50.284Z,15.50
2018-04-30T23:35:19.355Z,15.50
2018-04-30T23:37:49.217Z,15.50
2018-04-30T23:40:19.105Z,15.50
2018-04-30T23:42:48.194Z,15.50
2018-04-30T23:45:17.286Z,15.50
2018-04-30T23:47:46.383Z,15.50
2018-04-30T23:50:15.435Z,15.50
2018-04-30T23:52:44.518Z,15.50
2018-04-30T23:55:13.592Z,15.50
2018-04-30T23:57:42.825Z,15.50
